Time;durP1;ratioP1;P1;durP2;ratioP2;P2;SDS_P1;SDS_P2;PMS_P1;PMS_P2;Temp;Humidity;BMP_temperature;BMP_pressure;BME280_temperature;BME280_humidity;BME280_pressure;Samples;Min_cycle;Max_cycle;Signal;HPM_P1;HPM_P2
2023/06/09 00:00:55;;;;;;;9.73;2.72;;;;;;;;;;5078619;27;92027;-76
2023/06/09 00:03:22;;;;;;;10.10;2.70;;;;;;;;;;5060621;27;94618;-77
2023/06/09 00:05:49;;;;;;;11.35;3.00;;;;;;;;;;5061328;27;92777;-76
2023/06/09 00:08:15;;;;;;;8.93;2.40;;;;;;;;;;5062321;27;92078;-75
2023/06/09 00:10:42;;;;;;;8.70;2.72;;;;;;;;;;5062398;27;92449;-75
2023/06/09 00:13:09;;;;;;;10.52;2.80;;;;;;;;;;5079003;27;93108;-76
2023/06/09 00:15:36;;;;;;;9.63;2.72;;;;;;;;;;5069351;27;92487;-76
2023/06/09 00:18:03;;;;;;;9.48;2.80;;;;;;;;;;5061870;27;92831;-76
2023/06/09 00:20:33;;;;;;;10.32;2.88;;;;;;;;;;5061514;27;92197;-76
2023/06/09 00:23:00;;;;;;;9.05;2.80;;;;;;;;;;5076140;27;92172;-77
2023/06/09 00:25:27;;;;;;;11.88;3.22;;;;;;;;;;5060837;27;93268;-76
2023/06/09 00:27:53;;;;;;;11.43;3.25;;;;;;;;;;5080549;27;94753;-76
2023/06/09 00:30:22;;;;;;;8.13;2.60;;;;;;;;;;5081525;27;95713;-76
2023/06/09 00:33:04;;;;;;;9.82;2.53;;;;;;;;;;5079275;27;92988;-76
2023/06/09 00:35:31;;;;;;;7.63;2.65;;;;;;;;;;5084138;27;92537;-75
2023/06/09 00:37:57;;;;;;;6.97;2.58;;;;;;;;;;5074599;27;92673;-76
2023/06/09 00:40:24;;;;;;;7.78;2.58;;;;;;;;;;5079479;27;92233;-76
2023/06/09 00:42:51;;;;;;;8.60;2.50;;;;;;;;;;5081334;27;92276;-76
2023/06/09 00:45:18;;;;;;;8.93;2.63;;;;;;;;;;5066996;27;91888;-76
2023/06/09 00:47:45;;;;;;;7.07;2.42;;;;;;;;;;5074328;27;92348;-76
2023/06/09 00:50:12;;;;;;;7.35;2.50;;;;;;;;;;5074711;27;92389;-76
2023/06/09 00:52:40;;;;;;;8.68;2.63;;;;;;;;;;5069826;27;95436;-75
2023/06/09 00:55:08;;;;;;;7.00;2.33;;;;;;;;;;5079368;27;93600;-76
2023/06/09 00:57:34;;;;;;;6.85;2.20;;;;;;;;;;5069040;27;94555;-75
2023/06/09 01:00:05;;;;;;;7.07;2.28;;;;;;;;;;5082413;27;92419;-74
2023/06/09 01:02:32;;;;;;;6.95;2.78;;;;;;;;;;5081669;27;93370;-75
2023/06/09 01:04:59;;;;;;;;;;;;;;;;;;5082436;27;93685;-75
2023/06/09 01:07:32;;;;;;;9.68;2.53;;;;;;;;;;5081230;27;93444;-75
2023/06/09 01:10:09;;;;;;;11.65;2.83;;;;;;;;;;5072787;27;92406;-75
2023/06/09 01:12:35;;;;;;;10.25;2.90;;;;;;;;;;5061278;27;93084;-76
2023/06/09 01:15:05;;;;;;;9.55;2.50;;;;;;;;;;5060726;27;92630;-76
2023/06/09 01:17:33;;;;;;;10.23;2.42;;;;;;;;;;5059328;27;97435;-77
2023/06/09 01:20:03;;;;;;;7.05;2.17;;;;;;;;;;5064414;27;92882;-77
2023/06/09 01:22:52;;;;;;;9.20;2.45;;;;;;;;;;5060365;27;92845;-76
2023/06/09 01:25:35;;;;;;;7.85;2.38;;;;;;;;;;5060245;27;92686;-77
2023/06/09 01:28:06;;;;;;;7.47;2.53;;;;;;;;;;5059852;27;92081;-77
2023/06/09 01:30:33;;;;;;;8.00;2.45;;;;;;;;;;5066172;27;94812;-77
2023/06/09 01:33:03;;;;;;;10.00;2.72;;;;;;;;;;5063130;27;94962;-77
2023/06/09 01:35:30;;;;;;;9.38;2.40;;;;;;;;;;5066872;27;91616;-77
2023/06/09 01:37:57;;;;;;;7.97;2.45;;;;;;;;;;5072544;27;93780;-77
2023/06/09 01:40:25;;;;;;;8.02;2.55;;;;;;;;;;5079974;27;94838;-76
2023/06/09 01:42:52;;;;;;;9.07;2.60;;;;;;;;;;5079474;27;95047;-76
2023/06/09 01:45:18;;;;;;;6.78;2.25;;;;;;;;;;5068167;27;94862;-76
2023/06/09 01:47:45;;;;;;;10.00;2.53;;;;;;;;;;5070410;27;92066;-77
2023/06/09 01:50:24;;;;;;;9.38;2.78;;;;;;;;;;5067644;27;93131;-76
2023/06/09 01:52:57;;;;;;;11.00;2.40;;;;;;;;;;5092232;27;94536;-77
2023/06/09 01:55:27;;;;;;;6.68;2.35;;;;;;;;;;5067683;27;92173;-77
2023/06/09 01:57:56;;;;;;;8.75;2.50;;;;;;;;;;5046240;27;95203;-77
2023/06/09 02:00:24;;;;;;;7.22;2.40;;;;;;;;;;5064752;27;91777;-76
2023/06/09 02:02:52;;;;;;;8.27;2.25;;;;;;;;;;5066951;27;92130;-76
2023/06/09 02:05:20;;;;;;;9.00;2.60;;;;;;;;;;5075991;27;92621;-76
2023/06/09 02:07:46;;;;;;;6.65;2.20;;;;;;;;;;5078788;27;94548;-77
2023/06/09 02:10:14;;;;;;;8.18;2.03;;;;;;;;;;5081382;27;94781;-76
2023/06/09 02:12:40;;;;;;;8.88;2.40;;;;;;;;;;5083340;27;93406;-76
2023/06/09 02:15:07;;;;;;;14.82;2.78;;;;;;;;;;5082352;27;92639;-75
2023/06/09 02:17:34;;;;;;;11.85;2.97;;;;;;;;;;5082459;27;94015;-76
2023/06/09 02:20:03;;;;;;;10.07;2.78;;;;;;;;;;5073653;27;95631;-76
2023/06/09 02:22:30;;;;;;;9.80;2.50;;;;;;;;;;5082858;27;92685;-76
2023/06/09 02:24:58;;;;;;;6.88;2.38;;;;;;;;;;5065987;27;94239;-76
2023/06/09 02:27:24;;;;;;;7.50;2.58;;;;;;;;;;5044573;27;92093;-76
2023/06/09 02:29:51;;;;;;;9.27;2.50;;;;;;;;;;5074116;27;93549;-75
2023/06/09 02:32:17;;;;;;;8.13;2.28;;;;;;;;;;5077112;27;97077;-75
2023/06/09 02:34:45;;;;;;;9.27;2.50;;;;;;;;;;5075510;27;92208;-75
2023/06/09 02:37:12;;;;;;;6.85;2.25;;;;;;;;;;5064814;27;92750;-76
2023/06/09 02:39:41;;;;;;;7.82;2.45;;;;;;;;;;5076947;27;94431;-77
2023/06/09 02:42:08;;;;;;;8.55;2.70;;;;;;;;;;5067975;27;93064;-77
2023/06/09 02:44:37;;;;;;;11.90;2.45;;;;;;;;;;5065729;27;93692;-77
2023/06/09 02:47:04;;;;;;;22.52;2.90;;;;;;;;;;5074301;27;94722;-77
2023/06/09 02:49:31;;;;;;;7.57;2.25;;;;;;;;;;5062736;27;99318;-77
2023/06/09 02:52:00;;;;;;;10.88;2.60;;;;;;;;;;5066602;27;95853;-76
2023/06/09 02:54:30;;;;;;;9.00;2.50;;;;;;;;;;5074967;27;92218;-76
2023/06/09 02:56:56;;;;;;;9.27;2.60;;;;;;;;;;5081170;27;94739;-76
2023/06/09 02:59:23;;;;;;;10.00;2.25;;;;;;;;;;5081057;27;94752;-75
2023/06/09 03:01:51;;;;;;;9.70;2.45;;;;;;;;;;5078350;27;92490;-76
2023/06/09 03:04:18;;;;;;;7.93;2.50;;;;;;;;;;5062297;27;95258;-76
2023/06/09 03:06:48;;;;;;;10.07;2.50;;;;;;;;;;5044747;27;95293;-76
2023/06/09 03:09:16;;;;;;;7.63;2.72;;;;;;;;;;5064826;27;92415;-76
2023/06/09 03:11:46;;;;;;;8.15;2.45;;;;;;;;;;5061769;27;95575;-76
2023/06/09 03:14:13;;;;;;;7.72;2.55;;;;;;;;;;5062526;27;91432;-77
2023/06/09 03:16:40;;;;;;;8.32;2.58;;;;;;;;;;5061779;27;93855;-77
2023/06/09 03:19:07;;;;;;;9.70;2.53;;;;;;;;;;5069948;27;95142;-77
2023/06/09 03:21:35;;;;;;;8.57;2.40;;;;;;;;;;5070236;27;94550;-78
2023/06/09 03:24:04;;;;;;;10.30;2.50;;;;;;;;;;5071943;27;94518;-77
2023/06/09 03:26:31;;;;;;;7.60;2.60;;;;;;;;;;5082051;27;92681;-77
2023/06/09 03:28:58;;;;;;;9.60;2.53;;;;;;;;;;5064012;27;92015;-76
2023/06/09 03:31:25;;;;;;;7.50;2.55;;;;;;;;;;5063957;27;95079;-75
2023/06/09 03:33:52;;;;;;;7.93;2.50;;;;;;;;;;5071540;27;92015;-74
2023/06/09 03:36:21;;;;;;;11.02;2.42;;;;;;;;;;5075782;27;94987;-75
2023/06/09 03:38:48;;;;;;;7.65;2.53;;;;;;;;;;5061091;27;94257;-75
2023/06/09 03:41:14;;;;;;;8.02;2.70;;;;;;;;;;5078630;27;92537;-76
2023/06/09 03:43:41;;;;;;;7.53;2.40;;;;;;;;;;5078967;27;95006;-75
2023/06/09 03:46:08;;;;;;;6.75;2.35;;;;;;;;;;5076164;27;97691;-75
2023/06/09 03:48:34;;;;;;;6.50;2.35;;;;;;;;;;5081870;27;92615;-75
2023/06/09 03:51:01;;;;;;;8.13;2.45;;;;;;;;;;5081196;27;94564;-76
2023/06/09 03:53:27;;;;;;;8.93;2.65;;;;;;;;;;5078275;27;94878;-78
2023/06/09 03:55:55;;;;;;;7.80;2.50;;;;;;;;;;5068481;27;94525;-77
2023/06/09 03:58:22;;;;;;;9.68;2.58;;;;;;;;;;5060078;27;92726;-76
2023/06/09 04:00:49;;;;;;;7.45;2.58;;;;;;;;;;5060201;27;92623;-78
2023/06/09 04:03:18;;;;;;;8.73;2.83;;;;;;;;;;5061542;27;93835;-77
2023/06/09 04:05:44;;;;;;;8.93;2.58;;;;;;;;;;5060036;27;95393;-77
2023/06/09 04:08:12;;;;;;;8.23;2.33;;;;;;;;;;5062525;27;92166;-77
2023/06/09 04:10:40;;;;;;;9.43;2.70;;;;;;;;;;5049686;27;94900;-76
2023/06/09 04:13:07;;;;;;;7.32;2.55;;;;;;;;;;5083937;27;92682;-76
2023/06/09 04:15:34;;;;;;;7.40;2.50;;;;;;;;;;5050145;27;92355;-76
2023/06/09 04:18:01;;;;;;;7.72;2.70;;;;;;;;;;5080595;27;95552;-75
2023/06/09 04:20:31;;;;;;;7.70;2.60;;;;;;;;;;5079523;27;92085;-76
2023/06/09 04:22:58;;;;;;;9.40;2.83;;;;;;;;;;5060009;27;95330;-75
2023/06/09 04:25:29;;;;;;;8.43;2.50;;;;;;;;;;5058781;27;94578;-75
2023/06/09 04:28:03;;;;;;;8.32;2.67;;;;;;;;;;5081253;27;91288;-75
2023/06/09 04:30:30;;;;;;;8.77;2.80;;;;;;;;;;5066712;27;94078;-75
2023/06/09 04:32:58;;;;;;;10.88;2.60;;;;;;;;;;5047350;27;95520;-76
2023/06/09 04:35:25;;;;;;;20.08;2.83;;;;;;;;;;5069019;27;95972;-76
2023/06/09 04:37:51;;;;;;;10.57;2.72;;;;;;;;;;5076602;27;94671;-76
2023/06/09 04:40:23;;;;;;;9.73;2.95;;;;;;;;;;5075284;27;92549;-76
2023/06/09 04:42:51;;;;;;;7.18;2.67;;;;;;;;;;5080227;27;95101;-76
2023/06/09 04:45:19;;;;;;;9.35;2.60;;;;;;;;;;5079073;27;95120;-74
2023/06/09 04:47:48;;;;;;;8.98;2.67;;;;;;;;;;5077492;27;92106;-75
2023/06/09 04:50:15;;;;;;;7.85;2.60;;;;;;;;;;5082129;27;93267;-75
2023/06/09 04:52:42;;;;;;;;;;;;;;;;;;5080094;27;92027;-75
2023/06/09 04:55:09;;;;;;;7.40;2.60;;;;;;;;;;5070295;27;98324;-75
2023/06/09 04:57:36;;;;;;;9.43;2.38;;;;;;;;;;5082691;27;92389;-76
2023/06/09 05:00:03;;;;;;;9.07;2.60;;;;;;;;;;5078775;27;94673;-77
2023/06/09 05:02:31;;;;;;;9.90;2.70;;;;;;;;;;5063008;27;97794;-77
2023/06/09 05:05:00;;;;;;;11.50;2.90;;;;;;;;;;5079597;27;94839;-77
2023/06/09 05:07:27;;;;;;;8.75;2.70;;;;;;;;;;5069950;27;92213;-76
2023/06/09 05:09:53;;;;;;;8.80;2.38;;;;;;;;;;5061293;27;94469;-76
2023/06/09 05:12:20;;;;;;;8.07;2.80;;;;;;;;;;5072867;27;92545;-76
2023/06/09 05:14:47;;;;;;;8.15;2.47;;;;;;;;;;5075438;27;91970;-77
2023/06/09 05:17:14;;;;;;;10.25;2.70;;;;;;;;;;5079179;27;92757;-76
2023/06/09 05:19:40;;;;;;;8.15;2.28;;;;;;;;;;5075653;27;92350;-76
2023/06/09 05:22:08;;;;;;;8.13;2.80;;;;;;;;;;5079447;27;94149;-76
2023/06/09 05:24:34;;;;;;;14.45;3.10;;;;;;;;;;5074151;27;95582;-77
2023/06/09 05:27:01;;;;;;;8.68;2.55;;;;;;;;;;5062652;27;92130;-77
2023/06/09 05:29:27;;;;;;;6.05;2.10;;;;;;;;;;5068482;27;92354;-77
2023/06/09 05:31:55;;;;;;;11.38;2.85;;;;;;;;;;5082691;27;95276;-77
2023/06/09 05:34:22;;;;;;;6.75;2.63;;;;;;;;;;5073969;27;92075;-76
2023/06/09 05:36:49;;;;;;;7.65;2.40;;;;;;;;;;5065313;27;94471;-77
2023/06/09 05:39:16;;;;;;;9.68;2.70;;;;;;;;;;5071920;27;95386;-78
2023/06/09 05:41:42;;;;;;;11.10;2.97;;;;;;;;;;5087844;27;91398;-76
2023/06/09 05:44:09;;;;;;;9.43;2.60;;;;;;;;;;5072919;27;93204;-77
2023/06/09 05:46:38;;;;;;;9.15;2.58;;;;;;;;;;5083641;27;92728;-77
2023/06/09 05:49:05;;;;;;;8.85;2.58;;;;;;;;;;5065337;27;96140;-79
2023/06/09 05:51:32;;;;;;;9.00;2.50;;;;;;;;;;5070764;27;93644;-77
2023/06/09 05:54:00;;;;;;;9.40;2.53;;;;;;;;;;5077028;27;92408;-77
2023/06/09 05:56:27;;;;;;;8.88;2.50;;;;;;;;;;5061663;27;92698;-76
2023/06/09 05:59:03;;;;;;;8.65;2.55;;;;;;;;;;5057746;27;93047;-77
2023/06/09 06:01:30;;;;;;;7.20;2.25;;;;;;;;;;5081167;27;92141;-78
2023/06/09 06:03:57;;;;;;;12.18;2.60;;;;;;;;;;5077577;27;92746;-76
2023/06/09 06:06:24;;;;;;;10.85;2.40;;;;;;;;;;5081355;27;91555;-74
2023/06/09 06:08:51;;;;;;;7.78;2.45;;;;;;;;;;5076853;27;92553;-75
2023/06/09 06:11:17;;;;;;;8.73;2.53;;;;;;;;;;5060923;27;92679;-74
2023/06/09 06:13:44;;;;;;;8.27;2.38;;;;;;;;;;5061339;27;94755;-75
2023/06/09 06:16:10;;;;;;;12.93;2.45;;;;;;;;;;5055169;27;95586;-76
2023/06/09 06:18:37;;;;;;;11.95;2.75;;;;;;;;;;5074170;27;93775;-78
2023/06/09 06:21:04;;;;;;;9.38;2.70;;;;;;;;;;5063238;27;92119;-76
2023/06/09 06:23:31;;;;;;;9.27;2.38;;;;;;;;;;5065817;27;96977;-75
2023/06/09 06:25:58;;;;;;;11.90;2.83;;;;;;;;;;5063120;27;92303;-75
2023/06/09 06:28:24;;;;;;;11.60;3.10;;;;;;;;;;5062740;27;92584;-74
2023/06/09 06:30:51;;;;;;;12.15;2.70;;;;;;;;;;5061912;27;93147;-74
2023/06/09 06:33:17;;;;;;;7.90;2.50;;;;;;;;;;5064363;27;92600;-73
2023/06/09 06:35:44;;;;;;;15.27;2.78;;;;;;;;;;5067353;27;92184;-74
2023/06/09 06:38:10;;;;;;;9.40;2.80;;;;;;;;;;5060977;27;95757;-74
2023/06/09 06:40:37;;;;;;;9.48;2.60;;;;;;;;;;5072461;27;92343;-74
2023/06/09 06:43:03;;;;;;;7.55;2.40;;;;;;;;;;5062603;27;92763;-74
2023/06/09 06:45:50;;;;;;;10.93;2.80;;;;;;;;;;5068925;27;97456;-74
2023/06/09 06:48:17;;;;;;;7.90;2.97;;;;;;;;;;5063036;27;92778;-74
2023/06/09 06:50:43;;;;;;;11.40;3.05;;;;;;;;;;5044281;27;93036;-74
2023/06/09 06:53:10;;;;;;;11.07;3.70;;;;;;;;;;5071977;27;94865;-74
2023/06/09 06:55:37;;;;;;;10.40;3.85;;;;;;;;;;5063050;27;92735;-74
2023/06/09 06:58:03;;;;;;;12.70;3.65;;;;;;;;;;5061043;27;93299;-74
2023/06/09 07:00:30;;;;;;;9.77;3.55;;;;;;;;;;5064453;27;92189;-74
2023/06/09 07:02:57;;;;;;;8.40;3.13;;;;;;;;;;5080050;27;94870;-74
2023/06/09 07:05:23;;;;;;;9.68;3.42;;;;;;;;;;5065721;27;92516;-73
2023/06/09 07:07:50;;;;;;;9.70;3.40;;;;;;;;;;5063620;27;92396;-73
2023/06/09 07:10:17;;;;;;;10.13;3.53;;;;;;;;;;5071254;27;92715;-75
2023/06/09 07:12:43;;;;;;;10.10;3.63;;;;;;;;;;5081016;27;92128;-75
2023/06/09 07:15:10;;;;;;;10.38;3.40;;;;;;;;;;5072903;27;93600;-75
2023/06/09 07:17:36;;;;;;;8.27;3.40;;;;;;;;;;5081663;27;93501;-76
2023/06/09 07:20:03;;;;;;;9.00;3.20;;;;;;;;;;5061676;27;91332;-76
2023/06/09 07:22:33;;;;;;;10.00;3.70;;;;;;;;;;5060760;27;93597;-79
2023/06/09 07:25:00;;;;;;;10.50;3.80;;;;;;;;;;5064483;27;92635;-76
2023/06/09 07:27:27;;;;;;;8.35;3.67;;;;;;;;;;5066883;27;95581;-76
2023/06/09 07:29:53;;;;;;;10.30;3.67;;;;;;;;;;5083763;27;95157;-75
2023/06/09 07:32:20;;;;;;;10.55;3.95;;;;;;;;;;5080450;27;92197;-76
2023/06/09 07:34:47;;;;;;;10.82;4.68;;;;;;;;;;5075467;27;92569;-75
2023/06/09 07:37:14;;;;;;;9.38;4.18;;;;;;;;;;5064625;27;92947;-75
2023/06/09 07:39:41;;;;;;;12.00;4.80;;;;;;;;;;5064176;27;92724;-75
2023/06/09 07:42:07;;;;;;;18.30;5.82;;;;;;;;;;5062245;27;95098;-75
2023/06/09 07:44:35;;;;;;;21.08;5.43;;;;;;;;;;5062827;27;92974;-75
2023/06/09 07:47:02;;;;;;;43.78;6.82;;;;;;;;;;5060651;27;92362;-77
2023/06/09 07:49:28;;;;;;;33.83;5.80;;;;;;;;;;5059791;27;92795;-76
2023/06/09 07:51:55;;;;;;;20.60;6.03;;;;;;;;;;5070363;27;95870;-75
2023/06/09 07:54:23;;;;;;;16.38;4.93;;;;;;;;;;5060446;27;97367;-76
2023/06/09 07:56:50;;;;;;;;;;;;;;;;;;5080297;27;92805;-77
2023/06/09 07:59:17;;;;;;;13.40;6.90;;;;;;;;;;5080313;27;92060;-77
2023/06/09 08:01:44;;;;;;;;;;;;;;;;;;5075648;27;92926;-76
2023/06/09 08:04:10;;;;;;;12.73;5.38;;;;;;;;;;5068949;27;104620;-76
2023/06/09 08:06:37;;;;;;;13.68;4.95;;;;;;;;;;5069604;27;92252;-76
2023/06/09 08:09:04;;;;;;;12.55;5.55;;;;;;;;;;5064574;27;92539;-77
2023/06/09 08:11:31;;;;;;;14.07;5.10;;;;;;;;;;5064294;27;97871;-77
2023/06/09 08:13:58;;;;;;;14.23;6.05;;;;;;;;;;5081982;27;93505;-75
2023/06/09 08:16:24;;;;;;;12.35;5.15;;;;;;;;;;5070053;27;95495;-76
2023/06/09 08:18:51;;;;;;;12.38;5.00;;;;;;;;;;5080830;27;92426;-76
2023/06/09 08:21:17;;;;;;;13.68;5.60;;;;;;;;;;5075342;27;92422;-76
2023/06/09 08:23:45;;;;;;;14.98;6.93;;;;;;;;;;5064819;27;92602;-76
2023/06/09 08:26:11;;;;;;;15.82;6.10;;;;;;;;;;5074879;27;93025;-76
2023/06/09 08:28:38;;;;;;;12.85;5.82;;;;;;;;;;5059545;27;95200;-76
2023/06/09 08:31:05;;;;;;;12.73;5.40;;;;;;;;;;5066988;27;93221;-76
2023/06/09 08:33:33;;;;;;;12.30;5.07;;;;;;;;;;5050262;27;93229;-76
2023/06/09 08:36:02;;;;;;;13.40;6.13;;;;;;;;;;5074506;27;92723;-76
2023/06/09 08:38:32;;;;;;;13.10;6.32;;;;;;;;;;5067167;27;92372;-76
2023/06/09 08:41:08;;;;;;;11.50;5.68;;;;;;;;;;5077208;27;95242;-76
2023/06/09 08:43:35;;;;;;;15.20;6.45;;;;;;;;;;5077727;27;97879;-76
2023/06/09 08:46:06;;;;;;;12.18;5.40;;;;;;;;;;5081631;27;92121;-75
2023/06/09 08:48:34;;;;;;;12.73;6.70;;;;;;;;;;5080389;27;94972;-76
2023/06/09 08:51:01;;;;;;;14.07;4.82;;;;;;;;;;5056571;27;95086;-75
2023/06/09 08:53:28;;;;;;;10.63;4.75;;;;;;;;;;5064511;27;96937;-75
2023/06/09 08:55:55;;;;;;;10.27;4.40;;;;;;;;;;5063785;27;92744;-74
2023/06/09 08:58:22;;;;;;;9.27;4.30;;;;;;;;;;5062884;27;91607;-74
2023/06/09 09:00:50;;;;;;;10.10;4.57;;;;;;;;;;5063906;27;92175;-75
2023/06/09 09:03:17;;;;;;;9.70;3.97;;;;;;;;;;5063430;27;92688;-76
2023/06/09 09:05:43;;;;;;;;;;;;;;;;;;5063169;27;94568;-75
2023/06/09 09:08:11;;;;;;;11.13;4.00;;;;;;;;;;5084800;27;97227;-76
2023/06/09 09:10:38;;;;;;;;;;;;;;;;;;5078940;27;92775;-76
2023/06/09 09:13:07;;;;;;;9.15;3.83;;;;;;;;;;5083924;27;111898;-76
2023/06/09 09:15:33;;;;;;;8.35;3.90;;;;;;;;;;5078181;27;97358;-75
2023/06/09 09:18:00;;;;;;;8.40;3.80;;;;;;;;;;5065703;27;93482;-75
2023/06/09 09:20:30;;;;;;;9.60;4.00;;;;;;;;;;5062959;27;92172;-77
2023/06/09 09:22:57;;;;;;;8.75;4.00;;;;;;;;;;5065391;27;93718;-74
2023/06/09 09:25:25;;;;;;;8.27;3.72;;;;;;;;;;5082169;27;91965;-75
2023/06/09 09:28:02;;;;;;;7.70;3.55;;;;;;;;;;5082344;27;94951;-76
2023/06/09 09:30:43;;;;;;;7.97;3.75;;;;;;;;;;5080154;27;95482;-76
2023/06/09 09:33:13;;;;;;;7.28;3.35;;;;;;;;;;5065972;27;92365;-75
2023/06/09 09:35:43;;;;;;;8.85;4.10;;;;;;;;;;5080797;27;92838;-75
2023/06/09 09:38:16;;;;;;;8.02;3.70;;;;;;;;;;5063693;27;93410;-76
2023/06/09 09:40:44;;;;;;;8.55;3.40;;;;;;;;;;5066884;27;92145;-76
2023/06/09 09:43:11;;;;;;;8.40;3.70;;;;;;;;;;5062828;27;92721;-76
2023/06/09 09:45:47;;;;;;;8.35;3.45;;;;;;;;;;5062501;27;92141;-75
2023/06/09 09:48:15;;;;;;;7.30;3.58;;;;;;;;;;5066982;27;92505;-75
2023/06/09 09:50:43;;;;;;;9.25;3.55;;;;;;;;;;5073976;27;94858;-75
2023/06/09 09:53:10;;;;;;;7.10;3.38;;;;;;;;;;5074785;27;92256;-76
2023/06/09 09:55:38;;;;;;;7.72;3.45;;;;;;;;;;5071260;27;95011;-76
2023/06/09 09:58:06;;;;;;;7.43;3.75;;;;;;;;;;5083371;27;92511;-75
2023/06/09 10:00:35;;;;;;;7.90;3.92;;;;;;;;;;5083632;27;93565;-75
2023/06/09 10:03:06;;;;;;;7.50;3.90;;;;;;;;;;5076399;27;92071;-75
2023/06/09 10:05:34;;;;;;;6.97;3.50;;;;;;;;;;5077161;27;92548;-74
2023/06/09 10:08:03;;;;;;;7.28;3.25;;;;;;;;;;5076787;27;92568;-74
2023/06/09 10:10:30;;;;;;;6.90;3.58;;;;;;;;;;5077748;27;92717;-75
2023/06/09 10:12:57;;;;;;;6.97;3.42;;;;;;;;;;5079227;27;91440;-74
2023/06/09 10:15:24;;;;;;;7.25;3.30;;;;;;;;;;5077920;27;92494;-74
2023/06/09 10:17:55;;;;;;;7.88;3.70;;;;;;;;;;5073145;27;92717;-75
2023/06/09 10:20:22;;;;;;;8.65;3.75;;;;;;;;;;5081122;27;94388;-75
2023/06/09 10:22:49;;;;;;;7.25;3.60;;;;;;;;;;5084935;27;94811;-75
2023/06/09 10:25:16;;;;;;;6.72;3.53;;;;;;;;;;5082815;27;92064;-75
2023/06/09 10:27:43;;;;;;;7.88;3.50;;;;;;;;;;5082878;27;93201;-76
2023/06/09 10:30:11;;;;;;;6.15;3.45;;;;;;;;;;5077731;27;92974;-75
2023/06/09 10:32:40;;;;;;;7.35;3.58;;;;;;;;;;5074037;27;92162;-75
2023/06/09 10:35:08;;;;;;;6.93;3.40;;;;;;;;;;5076041;27;92404;-75
2023/06/09 10:37:35;;;;;;;7.55;3.70;;;;;;;;;;5079599;27;91436;-75
2023/06/09 10:40:03;;;;;;;7.07;3.80;;;;;;;;;;5062671;27;92058;-75
2023/06/09 10:42:32;;;;;;;7.15;3.20;;;;;;;;;;5074853;27;92500;-75
2023/06/09 10:45:17;;;;;;;8.38;3.70;;;;;;;;;;5083119;27;95431;-73
2023/06/09 10:47:44;;;;;;;6.80;3.42;;;;;;;;;;5080445;27;99239;-74
2023/06/09 10:50:23;;;;;;;8.73;3.88;;;;;;;;;;5080943;27;93009;-75
2023/06/09 10:52:52;;;;;;;6.72;3.70;;;;;;;;;;5076132;27;92252;-75
2023/06/09 10:55:21;;;;;;;7.90;3.58;;;;;;;;;;5061530;27;93214;-75
2023/06/09 10:57:47;;;;;;;10.25;4.57;;;;;;;;;;5062242;27;92853;-74
2023/06/09 11:00:15;;;;;;;9.65;4.30;;;;;;;;;;5064866;27;92233;-75
2023/06/09 11:03:05;;;;;;;10.55;4.75;;;;;;;;;;5083058;27;92425;-75
2023/06/09 11:05:40;;;;;;;8.82;4.05;;;;;;;;;;5053060;27;97318;-77
2023/06/09 11:08:07;;;;;;;8.45;4.22;;;;;;;;;;5071808;27;92238;-76
2023/06/09 11:10:35;;;;;;;9.07;3.78;;;;;;;;;;5063411;27;94901;-76
2023/06/09 11:13:03;;;;;;;8.85;4.25;;;;;;;;;;5049712;27;92087;-77
2023/06/09 11:15:50;;;;;;;8.80;4.32;;;;;;;;;;5067800;27;95819;-76
2023/06/09 11:18:17;;;;;;;9.07;4.55;;;;;;;;;;5082491;27;92658;-77
2023/06/09 11:20:43;;;;;;;9.02;4.47;;;;;;;;;;5075062;27;92485;-77
2023/06/09 11:23:10;;;;;;;8.23;4.18;;;;;;;;;;5079857;27;95081;-77
2023/06/09 11:25:37;;;;;;;8.50;4.60;;;;;;;;;;5066146;27;92198;-76
2023/06/09 11:28:06;;;;;;;8.27;4.40;;;;;;;;;;5063265;27;91863;-77
2023/06/09 11:30:33;;;;;;;9.10;4.25;;;;;;;;;;5082333;27;92367;-76
2023/06/09 11:33:00;;;;;;;8.32;4.40;;;;;;;;;;5071614;27;92168;-76
2023/06/09 11:35:27;;;;;;;9.63;4.72;;;;;;;;;;5071934;27;94637;-77
2023/06/09 11:37:58;;;;;;;9.25;4.47;;;;;;;;;;5061636;27;92714;-77
2023/06/09 11:40:28;;;;;;;8.00;4.85;;;;;;;;;;5060406;27;92344;-77
2023/06/09 11:42:56;;;;;;;7.93;4.57;;;;;;;;;;5080778;27;92107;-77
2023/06/09 11:45:23;;;;;;;6.95;3.85;;;;;;;;;;5068721;27;93001;-77
2023/06/09 11:47:56;;;;;;;8.50;4.25;;;;;;;;;;5078430;27;92090;-77
2023/06/09 11:50:23;;;;;;;8.05;4.10;;;;;;;;;;5070033;27;92384;-77
2023/06/09 11:53:13;;;;;;;9.23;4.45;;;;;;;;;;5072867;27;92315;-77
2023/06/09 11:55:40;;;;;;;8.95;4.47;;;;;;;;;;5072446;27;96266;-76
2023/06/09 11:58:08;;;;;;;7.38;4.10;;;;;;;;;;5079963;27;95500;-76
2023/06/09 12:00:39;;;;;;;8.55;4.40;;;;;;;;;;5079775;27;96634;-77
2023/06/09 12:03:06;;;;;;;8.93;4.47;;;;;;;;;;5074750;27;96653;-76
2023/06/09 12:05:33;;;;;;;8.38;4.28;;;;;;;;;;5072243;27;94436;-77
2023/06/09 12:08:03;;;;;;;;;;;;;;;;;;5077003;27;92409;-76
2023/06/09 12:10:30;;;;;;;10.52;4.10;;;;;;;;;;5070955;27;122425;-75
2023/06/09 12:12:57;;;;;;;7.20;4.07;;;;;;;;;;5071497;27;93709;-75
2023/06/09 12:15:25;;;;;;;8.18;4.72;;;;;;;;;;5060147;27;92346;-75
2023/06/09 12:17:53;;;;;;;7.78;4.32;;;;;;;;;;5059647;27;93585;-76
2023/06/09 12:20:23;;;;;;;7.07;3.90;;;;;;;;;;5058949;27;92345;-75
2023/06/09 12:22:49;;;;;;;7.68;4.07;;;;;;;;;;5065351;27;92472;-75
2023/06/09 12:25:22;;;;;;;7.50;3.97;;;;;;;;;;5077653;27;95161;-75
2023/06/09 12:27:48;;;;;;;8.02;3.97;;;;;;;;;;5059765;27;92597;-76
2023/06/09 12:30:34;;;;;;;6.07;3.83;;;;;;;;;;5059393;27;92436;-75
2023/06/09 12:33:10;;;;;;;6.85;3.70;;;;;;;;;;5095092;27;92695;-76
2023/06/09 12:35:41;;;;;;;7.40;3.88;;;;;;;;;;5074297;27;92109;-75
2023/06/09 12:38:18;;;;;;;7.60;4.00;;;;;;;;;;5060058;27;94495;-74
2023/06/09 12:40:55;;;;;;;7.68;4.00;;;;;;;;;;5060131;27;92154;-75
2023/06/09 12:43:22;;;;;;;7.93;3.90;;;;;;;;;;5060277;27;91927;-75
2023/06/09 12:45:49;;;;;;;7.90;3.75;;;;;;;;;;5067328;27;93328;-75
2023/06/09 12:48:16;;;;;;;6.60;3.78;;;;;;;;;;5080044;27;92731;-75
2023/06/09 12:50:43;;;;;;;;;;;;;;;;;;5071779;27;94419;-75
2023/06/09 12:53:10;;;;;;;6.78;3.75;;;;;;;;;;5073104;27;92696;-76
2023/06/09 12:55:37;;;;;;;5.78;3.35;;;;;;;;;;5061008;27;92280;-75
2023/06/09 12:58:05;;;;;;;7.20;3.88;;;;;;;;;;5066592;27;92582;-75
2023/06/09 13:00:32;;;;;;;6.78;3.47;;;;;;;;;;5081000;27;92576;-75
2023/06/09 13:02:58;;;;;;;;;;;;;;;;;;5067815;27;92456;-75
2023/06/09 13:05:32;;;;;;;7.22;4.03;;;;;;;;;;5066478;27;112542;-76
2023/06/09 13:08:00;;;;;;;6.78;3.50;;;;;;;;;;5079415;27;91399;-75
2023/06/09 13:10:27;;;;;;;6.72;3.63;;;;;;;;;;5071139;27;92639;-74
2023/06/09 13:12:53;;;;;;;6.95;3.70;;;;;;;;;;5079087;27;92199;-75
2023/06/09 13:15:23;;;;;;;6.55;3.90;;;;;;;;;;5078143;27;94437;-75
2023/06/09 13:17:50;;;;;;;7.15;3.80;;;;;;;;;;5078580;27;95138;-75
2023/06/09 13:20:18;;;;;;;6.05;3.50;;;;;;;;;;5084008;27;92870;-75
2023/06/09 13:22:45;;;;;;;6.30;3.42;;;;;;;;;;5071331;27;92183;-74
2023/06/09 13:25:11;;;;;;;;;;;;;;;;;;5060163;27;92881;-75
2023/06/09 13:27:40;;;;;;;6.03;3.45;;;;;;;;;;5061516;27;92058;-75
2023/06/09 13:30:07;;;;;;;6.28;3.63;;;;;;;;;;5059241;27;92537;-75
2023/06/09 13:32:35;;;;;;;7.25;3.70;;;;;;;;;;5058635;27;93945;-76
2023/06/09 13:35:02;;;;;;;7.03;3.45;;;;;;;;;;5066749;27;92237;-75
2023/06/09 13:37:28;;;;;;;7.22;3.63;;;;;;;;;;5058924;27;93087;-75
2023/06/09 13:39:55;;;;;;;7.32;3.65;;;;;;;;;;5056634;27;95306;-75
2023/06/09 13:42:21;;;;;;;7.55;3.60;;;;;;;;;;5063518;27;92298;-74
2023/06/09 13:44:48;;;;;;;6.75;3.60;;;;;;;;;;5059817;27;93023;-75
2023/06/09 13:47:14;;;;;;;6.65;3.70;;;;;;;;;;5062904;27;92271;-75
2023/06/09 13:49:41;;;;;;;6.75;3.90;;;;;;;;;;5085041;27;92653;-76
2023/06/09 13:52:08;;;;;;;5.88;3.42;;;;;;;;;;5075994;27;92540;-76
2023/06/09 13:54:34;;;;;;;6.22;3.35;;;;;;;;;;5065712;27;92459;-76
2023/06/09 13:57:01;;;;;;;5.72;3.35;;;;;;;;;;5077925;27;91505;-76
2023/06/09 13:59:27;;;;;;;5.78;3.22;;;;;;;;;;5067027;27;92666;-75
2023/06/09 14:01:54;;;;;;;5.47;3.28;;;;;;;;;;5063834;27;92075;-75
2023/06/09 14:04:21;;;;;;;6.43;3.60;;;;;;;;;;5068479;27;94422;-76
2023/06/09 14:06:47;;;;;;;6.80;3.55;;;;;;;;;;5081811;27;92356;-75
2023/06/09 14:09:15;;;;;;;5.93;3.47;;;;;;;;;;5068041;27;92454;-75
2023/06/09 14:11:41;;;;;;;6.90;3.70;;;;;;;;;;5083898;27;93134;-74
2023/06/09 14:14:08;;;;;;;6.07;3.45;;;;;;;;;;5075635;27;92543;-75
2023/06/09 14:16:35;;;;;;;6.30;3.42;;;;;;;;;;5064791;27;95601;-75
2023/06/09 14:19:01;;;;;;;5.60;3.20;;;;;;;;;;5075016;27;93719;-77
2023/06/09 14:21:28;;;;;;;6.10;3.38;;;;;;;;;;5062292;27;91418;-77
2023/06/09 14:23:55;;;;;;;6.15;3.28;;;;;;;;;;5071832;27;92718;-76
2023/06/09 14:26:21;;;;;;;6.70;3.70;;;;;;;;;;5069498;27;93450;-75
2023/06/09 14:28:48;;;;;;;5.55;3.28;;;;;;;;;;5079869;27;95456;-76
2023/06/09 14:31:14;;;;;;;5.60;3.40;;;;;;;;;;5079128;27;93259;-76
2023/06/09 14:33:41;;;;;;;6.40;3.40;;;;;;;;;;5070508;27;92400;-75
2023/06/09 14:36:09;;;;;;;6.35;3.40;;;;;;;;;;5067798;27;94072;-76
2023/06/09 14:38:36;;;;;;;5.68;3.20;;;;;;;;;;5062877;27;92680;-76
2023/06/09 14:41:03;;;;;;;6.70;3.22;;;;;;;;;;5063058;27;92200;-77
2023/06/09 14:43:29;;;;;;;5.28;3.00;;;;;;;;;;5061170;27;94911;-77
2023/06/09 14:45:56;;;;;;;7.10;3.20;;;;;;;;;;5066649;27;92354;-77
2023/06/09 14:48:22;;;;;;;7.40;3.40;;;;;;;;;;5062220;27;92364;-76